Terminal Aerodrome Forecast
Issued by NWS Albany, NY

Home | Current Version | Previous Version | Text Only | Print | Product List | Glossary On
Versions: 1 2 3 4 5 6 7 8 9 10 11 12 13 14 15 16 17 18 19 20 21 22 23 24 25 26 27 28 29
000
FTUS41 KALY 030840 AAB
TAFALB
TAF AMD
KALB 030840Z 0309/0406 01007KT P6SM BKN040
      TEMPO 0309/0311 SCT040
     FM031100 05005KT P6SM SKC
     FM040000 14004KT P6SM SKC=

USA.gov is the U.S. government's official web portal to all federal, state and local government web resources and services.